Time;durP1;ratioP1;P1;durP2;ratioP2;P2;SDS_P1;SDS_P2;PMS_P1;PMS_P2;Temp;Humidity;BMP_temperature;BMP_pressure;BME280_temperature;BME280_humidity;BME280_pressure;Samples;Min_cycle;Max_cycle;Signal;HPM_P1;HPM_P2
2023/06/09 00:01:38;;;;;;;21.17;6.72;;;;;;;;;;5125073;27;20050;-71
2023/06/09 00:04:04;;;;;;;17.50;7.57;;;;;;;;;;5108316;27;20512;-71
2023/06/09 00:06:32;;;;;;;22.77;7.63;;;;;;;;;;5111134;27;20096;-71
2023/06/09 00:08:58;;;;;;;21.08;8.50;;;;;;;;;;5143073;27;20051;-71
2023/06/09 00:11:25;;;;;;;16.52;6.82;;;;;;;;;;5110729;27;20082;-71
2023/06/09 00:13:51;;;;;;;18.42;7.22;;;;;;;;;;5126274;27;20126;-71
2023/06/09 00:16:17;;;;;;;17.67;6.40;;;;;;;;;;5138431;27;20050;-71
2023/06/09 00:18:45;;;;;;;16.15;7.05;;;;;;;;;;5131445;27;20091;-71
2023/06/09 00:21:15;;;;;;;17.13;6.22;;;;;;;;;;5112193;27;20044;-71
2023/06/09 00:23:44;;;;;;;14.20;6.32;;;;;;;;;;5147968;27;20509;-71
2023/06/09 00:26:10;;;;;;;19.63;7.63;;;;;;;;;;5113752;27;20069;-71
2023/06/09 00:28:36;;;;;;;19.92;7.43;;;;;;;;;;5136542;27;20051;-71
2023/06/09 00:31:02;;;;;;;16.95;7.07;;;;;;;;;;5136795;27;20054;-71
2023/06/09 00:33:29;;;;;;;18.73;7.20;;;;;;;;;;5123198;27;20039;-71
2023/06/09 00:35:55;;;;;;;21.38;7.43;;;;;;;;;;5138920;27;20071;-71
2023/06/09 00:38:21;;;;;;;14.73;6.60;;;;;;;;;;5118921;27;20046;-71
2023/06/09 00:40:52;;;;;;;19.05;7.50;;;;;;;;;;5132633;27;20050;-71
2023/06/09 00:43:18;;;;;;;20.42;6.18;;;;;;;;;;5137329;27;20053;-71
2023/06/09 00:45:45;;;;;;;21.85;7.03;;;;;;;;;;5116211;27;20077;-71
2023/06/09 00:48:11;;;;;;;17.48;6.47;;;;;;;;;;5120179;27;20573;-72
2023/06/09 00:50:38;;;;;;;19.23;6.97;;;;;;;;;;5122522;27;20574;-71
2023/06/09 00:53:05;;;;;;;20.35;6.20;;;;;;;;;;5115725;27;20150;-71
2023/06/09 00:55:33;;;;;;;17.73;6.55;;;;;;;;;;5124234;27;20474;-71
2023/06/09 00:58:00;;;;;;;18.17;6.20;;;;;;;;;;5116494;27;20158;-71
2023/06/09 01:00:26;;;;;;;21.60;7.18;;;;;;;;;;5133143;27;20047;-71
2023/06/09 01:02:54;;;;;;;19.13;6.63;;;;;;;;;;5127281;27;20092;-71
2023/06/09 01:05:20;;;;;;;14.65;6.63;;;;;;;;;;5104107;27;20053;-71
2023/06/09 01:07:54;;;;;;;23.23;7.90;;;;;;;;;;5131492;27;20035;-71
2023/06/09 01:10:24;;;;;;;17.30;5.95;;;;;;;;;;5100518;27;20043;-71
2023/06/09 01:13:02;;;;;;;18.15;7.15;;;;;;;;;;5122842;27;20066;-71
2023/06/09 01:15:30;;;;;;;20.40;6.10;;;;;;;;;;5111927;27;20448;-68
2023/06/09 01:18:00;;;;;;;27.83;7.82;;;;;;;;;;5128505;27;20039;-70
2023/06/09 01:20:39;;;;;;;16.45;6.45;;;;;;;;;;5119834;27;20043;-71
2023/06/09 01:23:15;;;;;;;23.17;6.85;;;;;;;;;;5089420;27;20571;-71
2023/06/09 01:25:43;;;;;;;17.30;7.70;;;;;;;;;;5111768;27;20051;-71
2023/06/09 01:28:14;;;;;;;18.92;7.90;;;;;;;;;;5111185;27;20055;-71
2023/06/09 01:30:42;;;;;;;19.27;7.13;;;;;;;;;;5113159;27;20120;-71
2023/06/09 01:33:09;;;;;;;22.75;6.90;;;;;;;;;;5131051;27;20242;-71
2023/06/09 01:35:35;;;;;;;19.85;7.43;;;;;;;;;;5131567;27;20043;-71
2023/06/09 01:38:03;;;;;;;24.42;7.82;;;;;;;;;;5129060;27;20080;-71
2023/06/09 01:40:30;;;;;;;17.92;7.70;;;;;;;;;;5115446;27;20085;-71
2023/06/09 01:42:57;;;;;;;23.52;6.53;;;;;;;;;;5113886;27;20097;-71
2023/06/09 01:45:24;;;;;;;21.23;6.32;;;;;;;;;;5129786;27;20457;-71
2023/06/09 01:47:50;;;;;;;14.30;6.97;;;;;;;;;;5113802;27;20070;-71
2023/06/09 01:50:18;;;;;;;16.27;5.85;;;;;;;;;;5126408;27;20031;-71
2023/06/09 01:52:48;;;;;;;19.85;6.50;;;;;;;;;;5105674;27;20051;-71
2023/06/09 01:55:24;;;;;;;20.05;6.03;;;;;;;;;;5145944;27;20513;-71
2023/06/09 01:57:56;;;;;;;16.95;6.95;;;;;;;;;;5113001;27;20428;-71
2023/06/09 02:00:24;;;;;;;22.30;7.53;;;;;;;;;;5125383;27;20047;-71
2023/06/09 02:02:52;;;;;;;19.60;6.70;;;;;;;;;;5106503;27;20054;-71
2023/06/09 02:05:19;;;;;;;18.35;7.63;;;;;;;;;;5128824;27;20035;-71
2023/06/09 02:07:45;;;;;;;23.95;6.50;;;;;;;;;;5113574;27;20039;-71
2023/06/09 02:10:12;;;;;;;21.77;7.43;;;;;;;;;;5128264;27;20074;-71
2023/06/09 02:12:38;;;;;;;20.77;6.32;;;;;;;;;;5102790;27;20035;-71
2023/06/09 02:15:05;;;;;;;19.73;7.40;;;;;;;;;;5102622;27;20096;-71
2023/06/09 02:17:34;;;;;;;21.33;6.88;;;;;;;;;;5104598;27;20055;-71
2023/06/09 02:20:00;;;;;;;16.13;5.65;;;;;;;;;;5119364;27;20395;-71
2023/06/09 02:22:26;;;;;;;28.27;8.32;;;;;;;;;;5106885;27;20122;-71
2023/06/09 02:24:53;;;;;;;21.83;6.70;;;;;;;;;;5109118;27;20043;-71
2023/06/09 02:27:19;;;;;;;24.00;6.65;;;;;;;;;;5101542;27;20095;-71
2023/06/09 02:29:45;;;;;;;16.48;6.32;;;;;;;;;;5135420;27;20513;-71
2023/06/09 02:32:12;;;;;;;17.27;6.85;;;;;;;;;;5101812;27;20051;-71
2023/06/09 02:34:38;;;;;;;21.10;6.57;;;;;;;;;;5102917;27;20043;-71
2023/06/09 02:37:07;;;;;;;21.45;7.20;;;;;;;;;;5120789;27;20505;-71
2023/06/09 02:39:36;;;;;;;20.13;7.53;;;;;;;;;;5121190;27;20367;-71
2023/06/09 02:42:03;;;;;;;26.65;8.43;;;;;;;;;;5121215;27;20039;-71
2023/06/09 02:44:31;;;;;;;20.42;8.77;;;;;;;;;;5114789;27;20089;-71
2023/06/09 02:46:59;;;;;;;27.95;11.00;;;;;;;;;;5120748;27;20039;-71
2023/06/09 02:49:25;;;;;;;27.67;11.82;;;;;;;;;;5120232;27;20096;-71
2023/06/09 02:51:51;;;;;;;21.48;9.50;;;;;;;;;;5123983;27;20035;-71
2023/06/09 02:54:18;;;;;;;27.60;9.73;;;;;;;;;;5101904;27;20047;-71
2023/06/09 02:56:44;;;;;;;29.95;10.43;;;;;;;;;;5105379;27;20112;-71
2023/06/09 02:59:10;;;;;;;32.65;10.32;;;;;;;;;;5100398;27;20406;-71
2023/06/09 03:01:37;;;;;;;24.55;9.32;;;;;;;;;;5121743;27;20154;-71
2023/06/09 03:04:05;;;;;;;19.83;8.85;;;;;;;;;;5107679;27;20387;-71
2023/06/09 03:06:36;;;;;;;20.13;8.32;;;;;;;;;;5103944;27;20096;-71
2023/06/09 03:09:03;;;;;;;21.83;9.18;;;;;;;;;;5121927;27;20090;-71
2023/06/09 03:11:30;;;;;;;21.83;8.68;;;;;;;;;;5096305;27;20104;-71
2023/06/09 03:13:56;;;;;;;21.45;9.18;;;;;;;;;;5110436;27;20043;-71
2023/06/09 03:16:23;;;;;;;21.40;8.38;;;;;;;;;;5099988;27;20510;-71
2023/06/09 03:18:49;;;;;;;19.95;8.68;;;;;;;;;;5119514;27;20054;-71
2023/06/09 03:21:15;;;;;;;24.27;8.43;;;;;;;;;;5091873;27;20836;-71
2023/06/09 03:23:41;;;;;;;23.58;9.25;;;;;;;;;;5104480;27;20444;-71
2023/06/09 03:26:08;;;;;;;27.38;9.52;;;;;;;;;;5121335;27;20068;-71
2023/06/09 03:28:34;;;;;;;17.30;8.23;;;;;;;;;;5120888;27;20785;-71
2023/06/09 03:31:00;;;;;;;25.67;9.27;;;;;;;;;;5103286;27;20039;-71
2023/06/09 03:33:26;;;;;;;20.10;7.65;;;;;;;;;;5122734;27;20038;-71
2023/06/09 03:35:52;;;;;;;21.92;9.05;;;;;;;;;;5099884;27;20039;-71
2023/06/09 03:38:19;;;;;;;19.42;7.95;;;;;;;;;;5103628;27;20098;-71
2023/06/09 03:40:45;;;;;;;19.10;8.02;;;;;;;;;;5121526;27;20106;-71
2023/06/09 03:43:11;;;;;;;21.67;9.57;;;;;;;;;;5119207;27;20039;-71
2023/06/09 03:45:37;;;;;;;24.27;9.57;;;;;;;;;;5120405;27;20092;-71
2023/06/09 03:48:05;;;;;;;22.70;7.55;;;;;;;;;;5123317;27;20395;-71
2023/06/09 03:50:31;;;;;;;18.75;7.88;;;;;;;;;;5120386;27;20043;-71
2023/06/09 03:52:57;;;;;;;31.85;10.48;;;;;;;;;;5120816;27;20170;-71
2023/06/09 03:55:24;;;;;;;23.40;8.43;;;;;;;;;;5101648;27;20369;-72
2023/06/09 03:57:51;;;;;;;22.05;8.32;;;;;;;;;;5100069;27;20043;-71
2023/06/09 04:00:18;;;;;;;21.88;8.48;;;;;;;;;;5120175;27;20063;-71
2023/06/09 04:02:44;;;;;;;19.45;8.07;;;;;;;;;;5102864;27;20131;-71
2023/06/09 04:05:11;;;;;;;18.17;7.97;;;;;;;;;;5101720;27;20043;-71
2023/06/09 04:07:37;;;;;;;22.83;8.18;;;;;;;;;;5121200;27;20043;-71
2023/06/09 04:10:03;;;;;;;24.45;8.85;;;;;;;;;;5101352;27;20051;-71
2023/06/09 04:12:30;;;;;;;16.20;8.18;;;;;;;;;;5103906;27;20100;-71
2023/06/09 04:14:56;;;;;;;22.95;7.45;;;;;;;;;;5102416;27;20054;-71
2023/06/09 04:17:22;;;;;;;25.77;7.82;;;;;;;;;;5136596;27;20134;-71
2023/06/09 04:19:49;;;;;;;19.33;7.55;;;;;;;;;;5119782;27;20036;-71
2023/06/09 04:22:15;;;;;;;20.65;7.90;;;;;;;;;;5121588;27;20042;-71
2023/06/09 04:24:41;;;;;;;19.52;7.80;;;;;;;;;;5120397;27;20506;-71
2023/06/09 04:27:08;;;;;;;20.65;7.32;;;;;;;;;;5098747;27;20163;-71
2023/06/09 04:29:34;;;;;;;27.95;7.10;;;;;;;;;;5117488;27;20115;-71
2023/06/09 04:32:01;;;;;;;17.77;7.20;;;;;;;;;;5118301;27;20061;-71
2023/06/09 04:34:28;;;;;;;22.95;6.88;;;;;;;;;;5120636;27;20042;-71
2023/06/09 04:36:55;;;;;;;18.17;7.25;;;;;;;;;;5124999;27;20032;-71
2023/06/09 04:39:28;;;;;;;29.08;9.77;;;;;;;;;;5105510;27;20059;-71
2023/06/09 04:41:54;;;;;;;15.50;7.10;;;;;;;;;;5106229;27;20367;-71
2023/06/09 04:44:21;;;;;;;21.60;7.80;;;;;;;;;;5107378;27;20419;-71
2023/06/09 04:46:49;;;;;;;19.73;9.15;;;;;;;;;;5104240;27;20584;-71
2023/06/09 04:49:16;;;;;;;24.08;8.13;;;;;;;;;;5126046;27;20081;-71
2023/06/09 04:51:48;;;;;;;18.95;8.60;;;;;;;;;;5126275;27;20090;-71
2023/06/09 04:54:18;;;;;;;26.50;9.27;;;;;;;;;;5105931;27;20126;-71
2023/06/09 04:56:52;;;;;;;25.27;9.27;;;;;;;;;;5124299;27;20053;-71
2023/06/09 04:59:20;;;;;;;22.15;9.65;;;;;;;;;;5106018;27;20055;-71
2023/06/09 05:01:47;;;;;;;26.83;10.45;;;;;;;;;;5105954;27;20549;-71
2023/06/09 05:04:14;;;;;;;23.00;8.95;;;;;;;;;;5105425;27;20057;-72
2023/06/09 05:06:40;;;;;;;21.40;9.43;;;;;;;;;;5139819;27;20043;-71
2023/06/09 05:09:07;;;;;;;20.92;8.25;;;;;;;;;;5122120;27;20381;-71
2023/06/09 05:11:33;;;;;;;22.27;8.55;;;;;;;;;;5104009;27;20146;-71
2023/06/09 05:14:00;;;;;;;16.73;8.18;;;;;;;;;;5119925;27;20051;-71
2023/06/09 05:16:27;;;;;;;17.05;7.43;;;;;;;;;;5121676;27;20470;-71
2023/06/09 05:18:53;;;;;;;22.15;8.02;;;;;;;;;;5128053;27;20047;-71
2023/06/09 05:21:21;;;;;;;19.38;7.13;;;;;;;;;;5121188;27;20035;-71
2023/06/09 05:23:48;;;;;;;15.13;7.70;;;;;;;;;;5107505;27;20521;-70
2023/06/09 05:26:15;;;;;;;17.63;8.23;;;;;;;;;;5113811;27;20039;-70
2023/06/09 05:28:41;;;;;;;22.33;9.40;;;;;;;;;;5120202;27;20515;-71
2023/06/09 05:31:07;;;;;;;23.73;8.63;;;;;;;;;;5126275;27;20047;-71
2023/06/09 05:33:33;;;;;;;19.45;6.93;;;;;;;;;;5135768;27;20035;-71
2023/06/09 05:36:01;;;;;;;21.05;7.93;;;;;;;;;;5108348;27;20053;-71
2023/06/09 05:38:27;;;;;;;17.40;7.50;;;;;;;;;;5120768;27;20115;-71
2023/06/09 05:40:53;;;;;;;20.00;7.25;;;;;;;;;;5117008;27;20076;-71
2023/06/09 05:43:26;;;;;;;20.75;7.38;;;;;;;;;;5122450;27;20064;-71
2023/06/09 05:45:52;;;;;;;17.65;6.93;;;;;;;;;;5124562;27;20047;-71
2023/06/09 05:48:18;;;;;;;18.75;7.40;;;;;;;;;;5129544;27;20043;-70
2023/06/09 05:50:46;;;;;;;17.80;7.43;;;;;;;;;;5126020;27;20046;-71
2023/06/09 05:53:12;;;;;;;16.50;6.40;;;;;;;;;;5114313;27;20372;-71
2023/06/09 05:55:38;;;;;;;21.05;8.40;;;;;;;;;;5126704;27;20405;-75
2023/06/09 05:58:05;;;;;;;23.27;7.22;;;;;;;;;;5108885;27;20043;-71
2023/06/09 06:00:31;;;;;;;26.88;8.48;;;;;;;;;;5122317;27;20044;-71
2023/06/09 06:03:00;;;;;;;17.67;7.07;;;;;;;;;;5126457;27;20039;-71
2023/06/09 06:05:26;;;;;;;22.83;8.18;;;;;;;;;;5132424;27;20099;-75
2023/06/09 06:07:52;;;;;;;17.77;7.35;;;;;;;;;;5128687;27;20084;-71
2023/06/09 06:10:19;;;;;;;17.27;6.47;;;;;;;;;;5098022;27;20046;-71
2023/06/09 06:12:45;;;;;;;19.92;7.22;;;;;;;;;;5109546;27;20039;-71
2023/06/09 06:15:11;;;;;;;18.48;7.22;;;;;;;;;;5105865;27;20039;-71
2023/06/09 06:17:37;;;;;;;23.15;6.65;;;;;;;;;;5123252;27;20044;-71
2023/06/09 06:20:05;;;;;;;24.25;6.88;;;;;;;;;;5103345;27;20041;-71
2023/06/09 06:22:32;;;;;;;20.20;6.90;;;;;;;;;;5125272;27;20355;-70
2023/06/09 06:24:58;;;;;;;15.75;6.60;;;;;;;;;;5143916;27;20046;-70
2023/06/09 06:27:24;;;;;;;22.38;6.85;;;;;;;;;;5113106;27;20075;-69
2023/06/09 06:29:50;;;;;;;20.10;6.68;;;;;;;;;;5131975;27;20428;-70
2023/06/09 06:32:16;;;;;;;13.77;6.20;;;;;;;;;;5104317;27;20043;-71
2023/06/09 06:34:43;;;;;;;17.83;6.57;;;;;;;;;;5125844;27;20100;-70
2023/06/09 06:37:09;;;;;;;23.65;7.93;;;;;;;;;;5112033;27;20353;-71
2023/06/09 06:39:35;;;;;;;17.42;6.10;;;;;;;;;;5125795;27;20104;-71
2023/06/09 06:42:01;;;;;;;22.13;6.43;;;;;;;;;;5131053;27;20041;-69
2023/06/09 06:44:27;;;;;;;23.45;6.85;;;;;;;;;;5112935;27;20143;-69
2023/06/09 06:46:53;;;;;;;15.38;6.93;;;;;;;;;;5125617;27;20039;-75
2023/06/09 06:49:20;;;;;;;24.85;6.65;;;;;;;;;;5112780;27;20131;-64
2023/06/09 06:51:46;;;;;;;20.60;6.63;;;;;;;;;;5126108;27;20101;-67
2023/06/09 06:54:12;;;;;;;21.50;6.70;;;;;;;;;;5129044;27;20041;-67
2023/06/09 06:56:38;;;;;;;21.52;6.43;;;;;;;;;;5114527;27;20490;-70
2023/06/09 06:59:05;;;;;;;18.90;6.93;;;;;;;;;;5131433;27;20039;-70
2023/06/09 07:01:32;;;;;;;20.45;7.00;;;;;;;;;;5116458;27;20046;-72
2023/06/09 07:03:58;;;;;;;16.73;7.13;;;;;;;;;;5116235;27;20082;-67
2023/06/09 07:06:25;;;;;;;24.42;5.72;;;;;;;;;;5118909;27;20043;-74
2023/06/09 07:08:54;;;;;;;19.00;7.80;;;;;;;;;;5133559;27;20078;-79
2023/06/09 07:11:21;;;;;;;18.95;6.93;;;;;;;;;;5118059;27;20042;-77
2023/06/09 07:13:47;;;;;;;20.88;6.18;;;;;;;;;;5116047;27;20045;-69
2023/06/09 07:16:14;;;;;;;18.80;7.43;;;;;;;;;;5113149;27;20576;-70
2023/06/09 07:18:40;;;;;;;18.30;6.32;;;;;;;;;;5107977;27;20039;-70
2023/06/09 07:21:06;;;;;;;15.23;6.53;;;;;;;;;;5129590;27;20581;-71
2023/06/09 07:23:32;;;;;;;20.38;5.93;;;;;;;;;;5128358;27;20134;-70
2023/06/09 07:25:58;;;;;;;15.93;6.32;;;;;;;;;;5114144;27;20042;-71
2023/06/09 07:28:25;;;;;;;19.13;6.13;;;;;;;;;;5109746;27;20062;-71
2023/06/09 07:30:51;;;;;;;16.00;4.95;;;;;;;;;;5135528;27;20119;-71
2023/06/09 07:33:19;;;;;;;20.98;6.55;;;;;;;;;;5131087;27;20031;-69
2023/06/09 07:35:48;;;;;;;14.70;5.78;;;;;;;;;;5133027;27;20138;-70
2023/06/09 07:38:15;;;;;;;23.52;7.63;;;;;;;;;;5114281;27;20043;-71
2023/06/09 07:40:41;;;;;;;17.13;6.18;;;;;;;;;;5122082;27;20051;-71
2023/06/09 07:43:09;;;;;;;12.93;4.80;;;;;;;;;;5154660;27;20103;-71
2023/06/09 07:45:36;;;;;;;18.00;5.88;;;;;;;;;;5133819;27;20031;-71
2023/06/09 07:48:02;;;;;;;20.60;8.27;;;;;;;;;;5141838;27;20478;-71
2023/06/09 07:50:28;;;;;;;22.67;6.07;;;;;;;;;;5118084;27;20049;-71
2023/06/09 07:52:55;;;;;;;19.15;6.28;;;;;;;;;;5131804;27;20051;-71
2023/06/09 07:55:21;;;;;;;20.83;6.65;;;;;;;;;;5142586;27;20034;-71
2023/06/09 07:57:47;;;;;;;15.75;5.85;;;;;;;;;;5131936;27;20035;-71
2023/06/09 08:00:13;;;;;;;14.48;6.32;;;;;;;;;;5133658;27;20038;-71
2023/06/09 08:02:42;;;;;;;14.32;5.60;;;;;;;;;;5137867;27;20432;-71
2023/06/09 08:05:09;;;;;;;17.45;5.75;;;;;;;;;;5115204;27;20074;-71
2023/06/09 08:07:35;;;;;;;15.95;5.47;;;;;;;;;;5135833;27;20104;-71
2023/06/09 08:10:02;;;;;;;15.15;5.88;;;;;;;;;;5133553;27;20107;-71
2023/06/09 08:12:28;;;;;;;17.38;6.32;;;;;;;;;;5136582;27;20035;-71
2023/06/09 08:14:54;;;;;;;14.18;5.85;;;;;;;;;;5119155;27;20058;-71
2023/06/09 08:17:20;;;;;;;16.92;6.10;;;;;;;;;;5118040;27;20439;-71
2023/06/09 08:19:47;;;;;;;18.27;5.47;;;;;;;;;;5137571;27;20469;-71
2023/06/09 08:22:13;;;;;;;16.42;6.20;;;;;;;;;;5107687;27;20039;-71
2023/06/09 08:24:39;;;;;;;13.65;5.22;;;;;;;;;;5148512;27;20043;-71
2023/06/09 08:27:07;;;;;;;13.30;5.22;;;;;;;;;;5118082;27;20059;-71
2023/06/09 08:29:33;;;;;;;18.58;5.43;;;;;;;;;;5117394;27;20138;-71
2023/06/09 08:32:00;;;;;;;13.00;4.82;;;;;;;;;;5141426;27;20083;-71
2023/06/09 08:34:26;;;;;;;15.50;5.30;;;;;;;;;;5142876;27;20043;-71
2023/06/09 08:36:52;;;;;;;13.23;5.47;;;;;;;;;;5116189;27;20031;-71
2023/06/09 08:39:18;;;;;;;22.35;8.55;;;;;;;;;;5115675;27;20043;-71
2023/06/09 08:41:51;;;;;;;12.40;5.30;;;;;;;;;;5143133;27;20039;-71
2023/06/09 08:44:17;;;;;;;19.63;6.57;;;;;;;;;;5104086;27;20119;-71
2023/06/09 08:46:43;;;;;;;15.13;5.60;;;;;;;;;;5117292;27;20394;-71
2023/06/09 08:49:09;;;;;;;16.50;5.93;;;;;;;;;;5136610;27;20106;-70
2023/06/09 08:51:37;;;;;;;15.00;5.15;;;;;;;;;;5137569;27;20462;-69
2023/06/09 08:54:03;;;;;;;17.30;5.75;;;;;;;;;;5112224;27;20058;-68
2023/06/09 08:56:30;;;;;;;15.07;5.43;;;;;;;;;;5117228;27;20043;-69
2023/06/09 08:58:56;;;;;;;13.15;5.05;;;;;;;;;;5115983;27;20450;-68
2023/06/09 09:01:22;;;;;;;12.48;4.85;;;;;;;;;;5135161;27;20481;-71
2023/06/09 09:03:49;;;;;;;13.20;5.68;;;;;;;;;;5115626;27;20122;-71
2023/06/09 09:06:15;;;;;;;17.38;6.10;;;;;;;;;;5135137;27;20395;-71
2023/06/09 09:08:43;;;;;;;15.43;5.13;;;;;;;;;;5117004;27;20059;-71
2023/06/09 09:11:10;;;;;;;13.10;4.80;;;;;;;;;;5135202;27;20100;-71
2023/06/09 09:13:36;;;;;;;14.10;5.40;;;;;;;;;;5114245;27;20196;-71
2023/06/09 09:16:02;;;;;;;14.98;5.28;;;;;;;;;;5120876;27;20131;-71
2023/06/09 09:18:32;;;;;;;13.85;5.30;;;;;;;;;;5135194;27;20043;-71
2023/06/09 09:20:58;;;;;;;12.52;4.93;;;;;;;;;;5118024;27;20482;-71
2023/06/09 09:23:31;;;;;;;10.75;4.93;;;;;;;;;;5135033;27;20091;-71
2023/06/09 09:26:01;;;;;;;12.63;5.05;;;;;;;;;;5135059;27;20043;-71
2023/06/09 09:28:37;;;;;;;14.73;5.70;;;;;;;;;;5124072;27;20042;-71
2023/06/09 09:31:03;;;;;;;13.63;5.20;;;;;;;;;;5123124;27;20055;-71
2023/06/09 09:33:30;;;;;;;15.38;5.72;;;;;;;;;;5116404;27;20070;-71
2023/06/09 09:35:59;;;;;;;18.58;5.70;;;;;;;;;;5124631;27;20053;-71
2023/06/09 09:38:30;;;;;;;14.48;4.95;;;;;;;;;;5126072;27;20390;-71
2023/06/09 09:40:57;;;;;;;14.32;6.15;;;;;;;;;;5114851;27;20054;-71
2023/06/09 09:43:27;;;;;;;12.20;4.80;;;;;;;;;;5115725;27;20075;-71
2023/06/09 09:45:54;;;;;;;11.45;5.03;;;;;;;;;;5116202;27;20043;-71
2023/06/09 09:48:22;;;;;;;13.88;5.32;;;;;;;;;;5116321;27;20043;-71
2023/06/09 09:50:50;;;;;;;16.98;5.35;;;;;;;;;;5123375;27;20049;-71
2023/06/09 09:53:16;;;;;;;13.55;4.95;;;;;;;;;;5147768;27;20443;-71
2023/06/09 09:55:45;;;;;;;11.68;4.63;;;;;;;;;;5130826;27;20167;-71
2023/06/09 09:58:12;;;;;;;13.55;5.13;;;;;;;;;;5134718;27;20100;-71
2023/06/09 10:00:39;;;;;;;12.50;4.63;;;;;;;;;;5132606;27;20100;-71
2023/06/09 10:03:09;;;;;;;13.93;4.93;;;;;;;;;;5121839;27;20039;-71
2023/06/09 10:05:37;;;;;;;13.75;4.97;;;;;;;;;;5143812;27;20081;-71
2023/06/09 10:08:05;;;;;;;13.38;4.95;;;;;;;;;;5134209;27;20050;-71
2023/06/09 10:10:31;;;;;;;10.63;4.70;;;;;;;;;;5113875;27;20062;-71
2023/06/09 10:13:00;;;;;;;13.30;5.22;;;;;;;;;;5109598;27;20172;-71
2023/06/09 10:15:26;;;;;;;12.98;5.30;;;;;;;;;;5139364;27;20039;-71
2023/06/09 10:17:54;;;;;;;8.80;4.40;;;;;;;;;;5135784;27;20039;-72
2023/06/09 10:20:21;;;;;;;12.18;5.07;;;;;;;;;;5118170;27;20441;-72
2023/06/09 10:22:48;;;;;;;12.82;4.97;;;;;;;;;;5135174;27;20046;-72
2023/06/09 10:25:14;;;;;;;10.75;4.53;;;;;;;;;;5144444;27;20585;-71
2023/06/09 10:27:40;;;;;;;11.13;5.03;;;;;;;;;;5136322;27;20052;-69
2023/06/09 10:30:07;;;;;;;12.85;5.68;;;;;;;;;;5130518;27;20042;-68
2023/06/09 10:32:36;;;;;;;13.07;4.53;;;;;;;;;;5142041;27;20537;-76
2023/06/09 10:35:04;;;;;;;11.93;4.85;;;;;;;;;;5119219;27;20051;-69
2023/06/09 10:37:31;;;;;;;13.50;4.85;;;;;;;;;;5143700;27;20672;-69
2023/06/09 10:40:09;;;;;;;10.43;4.50;;;;;;;;;;5132579;27;20105;-69
2023/06/09 10:42:36;;;;;;;13.65;4.60;;;;;;;;;;5123247;27;20479;-68
2023/06/09 10:45:12;;;;;;;11.38;4.22;;;;;;;;;;5114781;27;20074;-68
2023/06/09 10:47:46;;;;;;;10.80;5.20;;;;;;;;;;5110964;27;20049;-69
2023/06/09 10:50:30;;;;;;;11.52;4.57;;;;;;;;;;5131453;27;20046;-69
2023/06/09 10:52:57;;;;;;;9.18;4.15;;;;;;;;;;5120573;27;20051;-69
2023/06/09 10:55:27;;;;;;;13.48;4.65;;;;;;;;;;5143192;27;20107;-70
2023/06/09 10:57:53;;;;;;;10.48;4.47;;;;;;;;;;5138979;27;20118;-69
2023/06/09 11:00:20;;;;;;;9.68;4.82;;;;;;;;;;5131747;27;20562;-69
2023/06/09 11:02:52;;;;;;;12.77;4.65;;;;;;;;;;5111953;27;20058;-69
2023/06/09 11:05:22;;;;;;;8.25;4.20;;;;;;;;;;5113683;27;20047;-69
2023/06/09 11:07:49;;;;;;;11.82;5.03;;;;;;;;;;5130703;27;20031;-69
2023/06/09 11:10:19;;;;;;;14.35;4.35;;;;;;;;;;5149729;27;20494;-68
2023/06/09 11:12:50;;;;;;;12.23;5.43;;;;;;;;;;5113682;27;20593;-68
2023/06/09 11:15:17;;;;;;;10.07;4.80;;;;;;;;;;5115257;27;20092;-69
2023/06/09 11:17:44;;;;;;;13.20;5.05;;;;;;;;;;5115594;27;20047;-69
2023/06/09 11:20:11;;;;;;;10.38;4.13;;;;;;;;;;5130438;27;20051;-69
2023/06/09 11:22:47;;;;;;;15.07;5.15;;;;;;;;;;5114324;27;20054;-69
2023/06/09 11:25:19;;;;;;;11.68;4.50;;;;;;;;;;5109751;27;20558;-69
2023/06/09 11:27:47;;;;;;;11.18;4.63;;;;;;;;;;5117527;27;20050;-69
2023/06/09 11:30:18;;;;;;;11.52;4.97;;;;;;;;;;5114502;27;20390;-69
2023/06/09 11:32:47;;;;;;;11.77;4.85;;;;;;;;;;5120144;27;20043;-69
2023/06/09 11:35:40;;;;;;;14.07;4.60;;;;;;;;;;5114810;27;20343;-69
2023/06/09 11:38:07;;;;;;;13.07;4.43;;;;;;;;;;5117403;27;20130;-69
2023/06/09 11:40:55;;;;;;;11.30;4.43;;;;;;;;;;5122763;27;20092;-69
2023/06/09 11:43:22;;;;;;;11.68;4.95;;;;;;;;;;5110096;27;20474;-69
2023/06/09 11:45:48;;;;;;;11.52;4.45;;;;;;;;;;5117198;27;20083;-69
2023/06/09 11:48:15;;;;;;;11.82;4.40;;;;;;;;;;5132390;27;20309;-69
2023/06/09 11:50:43;;;;;;;13.27;4.70;;;;;;;;;;5113544;28;20065;-69
2023/06/09 11:53:10;;;;;;;14.10;5.10;;;;;;;;;;5112659;27;20043;-69
2023/06/09 11:55:37;;;;;;;17.55;4.40;;;;;;;;;;5134173;27;20075;-69
2023/06/09 11:58:04;;;;;;;13.18;4.97;;;;;;;;;;5132504;28;20039;-69
2023/06/09 12:00:32;;;;;;;12.43;5.43;;;;;;;;;;5129824;27;20501;-69
2023/06/09 12:02:58;;;;;;;12.25;4.75;;;;;;;;;;5111811;28;20053;-69
2023/06/09 12:05:28;;;;;;;17.73;5.00;;;;;;;;;;5118449;28;20107;-69
2023/06/09 12:07:55;;;;;;;10.85;4.00;;;;;;;;;;5133592;27;20532;-67
2023/06/09 12:10:23;;;;;;;11.65;4.15;;;;;;;;;;5122675;28;20051;-67
2023/06/09 12:12:53;;;;;;;15.63;5.55;;;;;;;;;;5131674;27;20352;-67
2023/06/09 12:15:20;;;;;;;17.10;4.90;;;;;;;;;;5115220;27;20034;-67
2023/06/09 12:17:51;;;;;;;12.30;4.95;;;;;;;;;;5125233;27;20099;-68
2023/06/09 12:20:26;;;;;;;16.30;5.15;;;;;;;;;;5131849;27;20116;-67
2023/06/09 12:22:54;;;;;;;13.30;4.88;;;;;;;;;;5131872;27;20118;-68
2023/06/09 12:25:27;;;;;;;15.77;5.75;;;;;;;;;;5132116;27;20054;-66
2023/06/09 12:27:54;;;;;;;18.45;5.72;;;;;;;;;;5127065;27;20129;-67
2023/06/09 12:30:33;;;;;;;17.02;5.75;;;;;;;;;;5130015;27;20071;-68
2023/06/09 12:33:10;;;;;;;14.90;5.32;;;;;;;;;;5136336;27;20039;-68
2023/06/09 12:35:43;;;;;;;10.00;4.80;;;;;;;;;;5137615;27;20043;-68
2023/06/09 12:38:10;;;;;;;12.57;5.28;;;;;;;;;;5116602;27;20051;-68
2023/06/09 12:41:03;;;;;;;13.13;4.28;;;;;;;;;;5118994;28;20050;-68
2023/06/09 12:43:42;;;;;;;14.52;4.70;;;;;;;;;;5108366;27;20053;-67
2023/06/09 12:46:08;;;;;;;15.35;5.40;;;;;;;;;;5119192;28;20092;-67
2023/06/09 12:48:53;;;;;;;11.55;4.65;;;;;;;;;;5131520;27;20130;-67
2023/06/09 12:51:19;;;;;;;19.05;5.43;;;;;;;;;;5107974;28;20461;-67
2023/06/09 12:53:46;;;;;;;10.93;5.00;;;;;;;;;;5139922;27;20035;-67
2023/06/09 12:56:12;;;;;;;10.80;4.63;;;;;;;;;;5131705;27;20070;-68
2023/06/09 12:58:38;;;;;;;15.35;5.15;;;;;;;;;;5116443;27;20051;-67
2023/06/09 13:01:04;;;;;;;12.98;4.18;;;;;;;;;;5117864;27;20543;-67
2023/06/09 13:03:37;;;;;;;13.18;5.20;;;;;;;;;;5132612;27;20039;-67
2023/06/09 13:06:03;;;;;;;9.93;4.00;;;;;;;;;;5133432;27;20050;-68
2023/06/09 13:08:29;;;;;;;10.82;3.97;;;;;;;;;;5115936;27;20125;-68
2023/06/09 13:10:55;;;;;;;13.60;4.30;;;;;;;;;;5116321;27;20507;-87
2023/06/09 13:13:22;;;;;;;13.50;4.68;;;;;;;;;;5134410;27;20487;-67
2023/06/09 13:15:48;;;;;;;17.02;4.68;;;;;;;;;;5133548;27;20491;-69
2023/06/09 13:18:15;;;;;;;18.77;4.75;;;;;;;;;;5122021;27;20043;-66
2023/06/09 13:20:41;;;;;;;11.93;5.32;;;;;;;;;;5130167;27;20063;-66
2023/06/09 13:23:08;;;;;;;11.75;4.13;;;;;;;;;;5116381;27;20111;-67
2023/06/09 13:25:40;;;;;;;14.35;4.90;;;;;;;;;;5135451;27;20054;-67
2023/06/09 13:28:07;;;;;;;10.65;4.57;;;;;;;;;;5128607;27;20126;-67
2023/06/09 13:30:33;;;;;;;16.17;6.20;;;;;;;;;;5117170;27;20495;-66
2023/06/09 13:33:00;;;;;;;12.55;5.10;;;;;;;;;;5115636;27;20035;-70
2023/06/09 13:35:26;;;;;;;14.02;4.60;;;;;;;;;;5117749;27;20053;-67
2023/06/09 13:37:53;;;;;;;14.68;4.68;;;;;;;;;;5123921;27;20058;-66
2023/06/09 13:40:19;;;;;;;12.52;5.00;;;;;;;;;;5143364;27;20058;-67
2023/06/09 13:42:50;;;;;;;11.85;4.40;;;;;;;;;;5125965;27;20039;-64
2023/06/09 13:45:16;;;;;;;15.52;5.03;;;;;;;;;;5137055;27;20042;-64
2023/06/09 13:47:43;;;;;;;11.38;5.05;;;;;;;;;;5137917;27;20160;-66
2023/06/09 13:50:10;;;;;;;13.25;4.47;;;;;;;;;;5141580;27;20178;-65
2023/06/09 13:52:37;;;;;;;11.95;4.47;;;;;;;;;;5119806;27;20046;-66
2023/06/09 13:55:04;;;;;;;14.73;5.65;;;;;;;;;;5149399;27;20051;-65
2023/06/09 13:57:30;;;;;;;11.18;4.85;;;;;;;;;;5139106;27;20039;-66
2023/06/09 13:59:56;;;;;;;13.25;4.60;;;;;;;;;;5134113;27;20043;-66
2023/06/09 14:02:23;;;;;;;16.55;4.53;;;;;;;;;;5122217;27;20075;-66
2023/06/09 14:04:49;;;;;;;15.15;5.15;;;;;;;;;;5134271;27;20398;-66
2023/06/09 14:07:15;;;;;;;10.70;4.95;;;;;;;;;;5145329;27;20504;-66
2023/06/09 14:09:43;;;;;;;11.48;4.55;;;;;;;;;;5130214;27;20039;-66
2023/06/09 14:12:09;;;;;;;16.13;5.05;;;;;;;;;;5115202;27;20054;-66
2023/06/09 14:14:35;;;;;;;12.90;4.25;;;;;;;;;;5133425;27;20035;-66
2023/06/09 14:17:01;;;;;;;10.15;4.30;;;;;;;;;;5111126;27;20043;-68
2023/06/09 14:19:28;;;;;;;12.00;4.43;;;;;;;;;;5126608;27;20206;-67
2023/06/09 14:21:54;;;;;;;7.28;3.90;;;;;;;;;;5137234;27;20489;-67
2023/06/09 14:24:20;;;;;;;10.57;3.92;;;;;;;;;;5125296;27;20110;-67
2023/06/09 14:26:48;;;;;;;11.25;4.20;;;;;;;;;;5121145;27;20039;-67
2023/06/09 14:29:14;;;;;;;12.25;4.65;;;;;;;;;;5096641;27;20051;-66
2023/06/09 14:31:40;;;;;;;12.93;4.35;;;;;;;;;;5112338;27;20039;-64
2023/06/09 14:34:06;;;;;;;10.32;4.45;;;;;;;;;;5133252;27;20031;-65